sensor_id;sensor_type;location;lat;lon;timestamp;P1;durP1;ratioP1;P2;durP2;ratioP2
21741;SDS011;11033;47.490;11.116;2024-02-26T00:00:06;0.70;;;0.70;;
21741;SDS011;11033;47.490;11.116;2024-02-26T00:02:35;1.58;;;0.90;;
21741;SDS011;11033;47.490;11.116;2024-02-26T00:05:04;0.85;;;0.85;;
21741;SDS011;11033;47.490;11.116;2024-02-26T00:07:30;0.93;;;0.80;;
21741;SDS011;11033;47.490;11.116;2024-02-26T00:09:55;1.27;;;0.50;;
21741;SDS011;11033;47.490;11.116;2024-02-26T00:12:20;0.75;;;0.70;;
21741;SDS011;11033;47.490;11.116;2024-02-26T00:14:46;0.93;;;0.60;;
21741;SDS011;11033;47.490;11.116;2024-02-26T00:17:12;0.88;;;0.70;;
21741;SDS011;11033;47.490;11.116;2024-02-26T00:19:38;0.75;;;0.60;;
21741;SDS011;11033;47.490;11.116;2024-02-26T00:22:04;1.05;;;0.70;;
21741;SDS011;11033;47.490;11.116;2024-02-26T00:24:29;1.13;;;1.00;;
21741;SDS011;11033;47.490;11.116;2024-02-26T00:26:54;1.08;;;0.80;;
21741;SDS011;11033;47.490;11.116;2024-02-26T00:29:19;0.80;;;0.80;;
21741;SDS011;11033;47.490;11.116;2024-02-26T00:31:45;1.23;;;0.70;;
21741;SDS011;11033;47.490;11.116;2024-02-26T00:34:10;0.50;;;0.50;;
21741;SDS011;11033;47.490;11.116;2024-02-26T00:36:36;1.08;;;0.60;;
21741;SDS011;11033;47.490;11.116;2024-02-26T00:39:01;0.70;;;0.70;;
21741;SDS011;11033;47.490;11.116;2024-02-26T00:41:28;1.05;;;0.60;;
21741;SDS011;11033;47.490;11.116;2024-02-26T00:43:53;1.08;;;0.70;;
21741;SDS011;11033;47.490;11.116;2024-02-26T00:46:19;1.60;;;0.75;;
21741;SDS011;11033;47.490;11.116;2024-02-26T00:48:44;1.75;;;0.60;;
21741;SDS011;11033;47.490;11.116;2024-02-26T00:51:09;0.70;;;0.70;;
21741;SDS011;11033;47.490;11.116;2024-02-26T00:53:34;0.65;;;0.65;;
21741;SDS011;11033;47.490;11.116;2024-02-26T00:56:00;0.60;;;0.60;;
21741;SDS011;11033;47.490;11.116;2024-02-26T00:58:25;1.25;;;0.70;;
21741;SDS011;11033;47.490;11.116;2024-02-26T01:00:51;0.63;;;0.63;;
21741;SDS011;11033;47.490;11.116;2024-02-26T01:03:17;0.52;;;0.52;;
21741;SDS011;11033;47.490;11.116;2024-02-26T01:05:42;0.70;;;0.70;;
21741;SDS011;11033;47.490;11.116;2024-02-26T01:08:08;0.65;;;0.65;;
21741;SDS011;11033;47.490;11.116;2024-02-26T01:10:33;0.65;;;0.65;;
21741;SDS011;11033;47.490;11.116;2024-02-26T01:12:59;0.60;;;0.60;;
21741;SDS011;11033;47.490;11.116;2024-02-26T01:15:24;0.88;;;0.52;;
21741;SDS011;11033;47.490;11.116;2024-02-26T01:17:50;0.50;;;0.47;;
21741;SDS011;11033;47.490;11.116;2024-02-26T01:20:16;0.63;;;0.57;;
21741;SDS011;11033;47.490;11.116;2024-02-26T01:22:42;1.33;;;0.77;;
21741;SDS011;11033;47.490;11.116;2024-02-26T01:25:08;0.63;;;0.63;;
21741;SDS011;11033;47.490;11.116;2024-02-26T01:27:34;1.23;;;0.70;;
21741;SDS011;11033;47.490;11.116;2024-02-26T01:30:00;0.85;;;0.60;;
21741;SDS011;11033;47.490;11.116;2024-02-26T01:32:25;0.98;;;0.65;;
21741;SDS011;11033;47.490;11.116;2024-02-26T01:34:50;0.60;;;0.60;;
21741;SDS011;11033;47.490;11.116;2024-02-26T01:37:16;0.60;;;0.60;;
21741;SDS011;11033;47.490;11.116;2024-02-26T01:39:41;0.95;;;0.70;;
21741;SDS011;11033;47.490;11.116;2024-02-26T01:42:07;0.60;;;0.60;;
21741;SDS011;11033;47.490;11.116;2024-02-26T01:44:32;0.68;;;0.68;;
21741;SDS011;11033;47.490;11.116;2024-02-26T01:46:57;0.85;;;0.70;;
21741;SDS011;11033;47.490;11.116;2024-02-26T01:49:23;0.60;;;0.50;;
21741;SDS011;11033;47.490;11.116;2024-02-26T01:51:48;0.68;;;0.60;;
21741;SDS011;11033;47.490;11.116;2024-02-26T01:54:14;0.82;;;0.70;;
21741;SDS011;11033;47.490;11.116;2024-02-26T01:56:39;0.60;;;0.60;;
21741;SDS011;11033;47.490;11.116;2024-02-26T01:59:06;1.50;;;0.50;;
21741;SDS011;11033;47.490;11.116;2024-02-26T02:01:33;0.60;;;0.60;;
21741;SDS011;11033;47.490;11.116;2024-02-26T02:03:59;0.60;;;0.55;;
21741;SDS011;11033;47.490;11.116;2024-02-26T02:06:25;0.60;;;0.60;;
21741;SDS011;11033;47.490;11.116;2024-02-26T02:08:52;0.80;;;0.80;;
21741;SDS011;11033;47.490;11.116;2024-02-26T02:11:17;0.60;;;0.60;;
21741;SDS011;11033;47.490;11.116;2024-02-26T02:13:43;0.63;;;0.63;;
21741;SDS011;11033;47.490;11.116;2024-02-26T02:16:08;0.70;;;0.70;;
21741;SDS011;11033;47.490;11.116;2024-02-26T02:18:33;0.52;;;0.52;;
21741;SDS011;11033;47.490;11.116;2024-02-26T02:21:02;0.60;;;0.60;;
21741;SDS011;11033;47.490;11.116;2024-02-26T02:23:27;0.65;;;0.65;;
21741;SDS011;11033;47.490;11.116;2024-02-26T02:25:52;0.70;;;0.70;;
21741;SDS011;11033;47.490;11.116;2024-02-26T02:28:20;0.70;;;0.70;;
21741;SDS011;11033;47.490;11.116;2024-02-26T02:30:46;0.63;;;0.63;;
21741;SDS011;11033;47.490;11.116;2024-02-26T02:33:11;0.70;;;0.60;;
21741;SDS011;11033;47.490;11.116;2024-02-26T02:35:37;0.68;;;0.60;;
21741;SDS011;11033;47.490;11.116;2024-02-26T02:38:03;0.50;;;0.50;;
21741;SDS011;11033;47.490;11.116;2024-02-26T02:40:28;1.33;;;0.60;;
21741;SDS011;11033;47.490;11.116;2024-02-26T02:42:53;2.00;;;0.60;;
21741;SDS011;11033;47.490;11.116;2024-02-26T02:45:19;0.68;;;0.68;;
21741;SDS011;11033;47.490;11.116;2024-02-26T02:47:44;0.60;;;0.60;;
21741;SDS011;11033;47.490;11.116;2024-02-26T02:50:09;0.77;;;0.70;;
21741;SDS011;11033;47.490;11.116;2024-02-26T02:52:34;1.30;;;1.17;;
21741;SDS011;11033;47.490;11.116;2024-02-26T02:55:00;0.63;;;0.63;;
21741;SDS011;11033;47.490;11.116;2024-02-26T02:57:26;0.50;;;0.50;;
21741;SDS011;11033;47.490;11.116;2024-02-26T02:59:51;0.60;;;0.60;;
21741;SDS011;11033;47.490;11.116;2024-02-26T03:02:16;1.55;;;0.65;;
21741;SDS011;11033;47.490;11.116;2024-02-26T03:04:41;0.60;;;0.60;;
21741;SDS011;11033;47.490;11.116;2024-02-26T03:07:07;0.85;;;0.70;;
21741;SDS011;11033;47.490;11.116;2024-02-26T03:09:32;1.25;;;0.60;;
21741;SDS011;11033;47.490;11.116;2024-02-26T03:11:57;0.75;;;0.70;;
21741;SDS011;11033;47.490;11.116;2024-02-26T03:14:23;2.55;;;0.60;;
21741;SDS011;11033;47.490;11.116;2024-02-26T03:16:48;0.70;;;0.68;;
21741;SDS011;11033;47.490;11.116;2024-02-26T03:19:14;1.13;;;0.60;;
21741;SDS011;11033;47.490;11.116;2024-02-26T03:21:41;0.70;;;0.70;;
21741;SDS011;11033;47.490;11.116;2024-02-26T03:24:07;0.50;;;0.50;;
21741;SDS011;11033;47.490;11.116;2024-02-26T03:26:35;0.50;;;0.50;;
21741;SDS011;11033;47.490;11.116;2024-02-26T03:29:00;0.40;;;0.40;;
21741;SDS011;11033;47.490;11.116;2024-02-26T03:31:27;1.38;;;0.68;;
21741;SDS011;11033;47.490;11.116;2024-02-26T03:33:52;0.70;;;0.70;;
21741;SDS011;11033;47.490;11.116;2024-02-26T03:36:18;0.50;;;0.50;;
21741;SDS011;11033;47.490;11.116;2024-02-26T03:38:43;0.75;;;0.70;;
21741;SDS011;11033;47.490;11.116;2024-02-26T03:41:08;0.50;;;0.50;;
21741;SDS011;11033;47.490;11.116;2024-02-26T03:43:33;0.65;;;0.60;;
21741;SDS011;11033;47.490;11.116;2024-02-26T03:45:59;0.57;;;0.57;;
21741;SDS011;11033;47.490;11.116;2024-02-26T03:48:25;1.05;;;0.70;;
21741;SDS011;11033;47.490;11.116;2024-02-26T03:50:50;0.63;;;0.60;;
21741;SDS011;11033;47.490;11.116;2024-02-26T03:53:16;1.15;;;0.63;;
21741;SDS011;11033;47.490;11.116;2024-02-26T03:55:41;0.60;;;0.60;;
21741;SDS011;11033;47.490;11.116;2024-02-26T03:58:07;0.70;;;0.70;;
21741;SDS011;11033;47.490;11.116;2024-02-26T04:00:33;1.67;;;0.90;;
21741;SDS011;11033;47.490;11.116;2024-02-26T04:02:58;1.45;;;0.70;;
21741;SDS011;11033;47.490;11.116;2024-02-26T04:05:23;1.65;;;0.80;;
21741;SDS011;11033;47.490;11.116;2024-02-26T04:07:48;0.75;;;0.52;;
21741;SDS011;11033;47.490;11.116;2024-02-26T04:10:14;0.60;;;0.60;;
21741;SDS011;11033;47.490;11.116;2024-02-26T04:12:39;0.60;;;0.60;;
21741;SDS011;11033;47.490;11.116;2024-02-26T04:15:06;0.70;;;0.70;;
21741;SDS011;11033;47.490;11.116;2024-02-26T04:17:32;0.50;;;0.50;;
21741;SDS011;11033;47.490;11.116;2024-02-26T04:19:57;0.50;;;0.50;;
21741;SDS011;11033;47.490;11.116;2024-02-26T04:22:23;0.70;;;0.70;;
21741;SDS011;11033;47.490;11.116;2024-02-26T04:24:49;0.50;;;0.50;;
21741;SDS011;11033;47.490;11.116;2024-02-26T04:27:14;1.77;;;0.60;;
21741;SDS011;11033;47.490;11.116;2024-02-26T04:29:39;0.68;;;0.68;;
21741;SDS011;11033;47.490;11.116;2024-02-26T04:32:04;0.50;;;0.50;;
21741;SDS011;11033;47.490;11.116;2024-02-26T04:34:30;0.60;;;0.60;;
21741;SDS011;11033;47.490;11.116;2024-02-26T04:36:55;0.60;;;0.50;;
21741;SDS011;11033;47.490;11.116;2024-02-26T04:39:21;0.80;;;0.70;;
21741;SDS011;11033;47.490;11.116;2024-02-26T04:41:46;1.45;;;0.65;;
21741;SDS011;11033;47.490;11.116;2024-02-26T04:44:11;1.48;;;0.70;;
21741;SDS011;11033;47.490;11.116;2024-02-26T04:46:36;0.50;;;0.50;;
21741;SDS011;11033;47.490;11.116;2024-02-26T04:49:02;0.45;;;0.45;;
21741;SDS011;11033;47.490;11.116;2024-02-26T04:51:27;1.95;;;0.75;;
21741;SDS011;11033;47.490;11.116;2024-02-26T04:53:52;0.93;;;0.52;;
21741;SDS011;11033;47.490;11.116;2024-02-26T04:56:19;0.60;;;0.60;;
21741;SDS011;11033;47.490;11.116;2024-02-26T04:58:47;0.60;;;0.60;;
21741;SDS011;11033;47.490;11.116;2024-02-26T05:01:13;0.68;;;0.68;;
21741;SDS011;11033;47.490;11.116;2024-02-26T05:03:38;0.63;;;0.60;;
21741;SDS011;11033;47.490;11.116;2024-02-26T05:06:04;1.08;;;0.70;;
21741;SDS011;11033;47.490;11.116;2024-02-26T05:08:30;0.70;;;0.70;;
21741;SDS011;11033;47.490;11.116;2024-02-26T05:10:56;2.17;;;0.60;;
21741;SDS011;11033;47.490;11.116;2024-02-26T05:13:21;2.25;;;0.73;;
21741;SDS011;11033;47.490;11.116;2024-02-26T05:15:46;0.98;;;0.80;;
21741;SDS011;11033;47.490;11.116;2024-02-26T05:18:14;0.82;;;0.70;;
21741;SDS011;11033;47.490;11.116;2024-02-26T05:20:39;0.80;;;0.80;;
21741;SDS011;11033;47.490;11.116;2024-02-26T05:23:05;1.73;;;0.70;;
21741;SDS011;11033;47.490;11.116;2024-02-26T05:25:30;2.72;;;0.90;;
21741;SDS011;11033;47.490;11.116;2024-02-26T05:27:56;1.38;;;0.85;;
21741;SDS011;11033;47.490;11.116;2024-02-26T05:30:21;1.85;;;0.75;;
21741;SDS011;11033;47.490;11.116;2024-02-26T05:32:46;0.98;;;0.90;;
21741;SDS011;11033;47.490;11.116;2024-02-26T05:35:12;1.55;;;0.90;;
21741;SDS011;11033;47.490;11.116;2024-02-26T05:37:37;1.00;;;0.73;;
21741;SDS011;11033;47.490;11.116;2024-02-26T05:40:02;0.70;;;0.70;;
21741;SDS011;11033;47.490;11.116;2024-02-26T05:42:29;0.80;;;0.80;;
21741;SDS011;11033;47.490;11.116;2024-02-26T05:44:55;0.90;;;0.90;;
21741;SDS011;11033;47.490;11.116;2024-02-26T05:47:20;1.85;;;0.77;;
21741;SDS011;11033;47.490;11.116;2024-02-26T05:49:45;2.00;;;0.85;;
21741;SDS011;11033;47.490;11.116;2024-02-26T05:52:10;1.27;;;0.90;;
21741;SDS011;11033;47.490;11.116;2024-02-26T05:54:36;1.13;;;0.88;;
21741;SDS011;11033;47.490;11.116;2024-02-26T05:57:01;0.70;;;0.70;;
21741;SDS011;11033;47.490;11.116;2024-02-26T05:59:27;0.73;;;0.70;;
21741;SDS011;11033;47.490;11.116;2024-02-26T06:01:52;1.45;;;0.70;;
21741;SDS011;11033;47.490;11.116;2024-02-26T06:04:17;0.73;;;0.73;;
21741;SDS011;11033;47.490;11.116;2024-02-26T06:06:43;0.70;;;0.70;;
21741;SDS011;11033;47.490;11.116;2024-02-26T06:09:10;0.70;;;0.70;;
21741;SDS011;11033;47.490;11.116;2024-02-26T06:11:36;1.10;;;0.70;;
21741;SDS011;11033;47.490;11.116;2024-02-26T06:14:01;0.93;;;0.60;;
21741;SDS011;11033;47.490;11.116;2024-02-26T06:16:27;0.98;;;0.88;;
21741;SDS011;11033;47.490;11.116;2024-02-26T06:18:52;0.70;;;0.70;;
21741;SDS011;11033;47.490;11.116;2024-02-26T06:21:18;1.92;;;0.80;;
21741;SDS011;11033;47.490;11.116;2024-02-26T06:23:43;1.30;;;0.85;;
21741;SDS011;11033;47.490;11.116;2024-02-26T06:26:08;0.70;;;0.70;;
21741;SDS011;11033;47.490;11.116;2024-02-26T06:28:35;1.05;;;0.70;;
21741;SDS011;11033;47.490;11.116;2024-02-26T06:31:00;1.17;;;0.73;;
21741;SDS011;11033;47.490;11.116;2024-02-26T06:33:26;2.63;;;1.10;;
21741;SDS011;11033;47.490;11.116;2024-02-26T06:35:51;3.00;;;1.17;;
21741;SDS011;11033;47.490;11.116;2024-02-26T06:38:17;2.72;;;1.10;;
21741;SDS011;11033;47.490;11.116;2024-02-26T06:40:44;2.83;;;0.93;;
21741;SDS011;11033;47.490;11.116;2024-02-26T06:43:09;1.45;;;1.20;;
21741;SDS011;11033;47.490;11.116;2024-02-26T06:45:35;1.75;;;0.90;;
21741;SDS011;11033;47.490;11.116;2024-02-26T06:48:00;1.67;;;1.08;;
21741;SDS011;11033;47.490;11.116;2024-02-26T06:50:26;1.10;;;1.00;;
21741;SDS011;11033;47.490;11.116;2024-02-26T06:52:51;3.72;;;1.00;;
21741;SDS011;11033;47.490;11.116;2024-02-26T06:55:16;4.72;;;1.55;;
21741;SDS011;11033;47.490;11.116;2024-02-26T06:57:42;1.38;;;1.20;;
21741;SDS011;11033;47.490;11.116;2024-02-26T07:00:07;1.10;;;1.05;;
21741;SDS011;11033;47.490;11.116;2024-02-26T07:02:33;2.42;;;0.90;;
21741;SDS011;11033;47.490;11.116;2024-02-26T07:04:58;1.15;;;0.88;;
21741;SDS011;11033;47.490;11.116;2024-02-26T07:07:24;0.75;;;0.75;;
21741;SDS011;11033;47.490;11.116;2024-02-26T07:09:50;1.05;;;0.85;;
21741;SDS011;11033;47.490;11.116;2024-02-26T07:12:15;1.10;;;1.00;;
21741;SDS011;11033;47.490;11.116;2024-02-26T07:17:11;0.80;;;0.80;;
21741;SDS011;11033;47.490;11.116;2024-02-26T07:19:36;1.67;;;0.60;;
21741;SDS011;11033;47.490;11.116;2024-02-26T07:22:01;0.80;;;0.80;;
21741;SDS011;11033;47.490;11.116;2024-02-26T07:24:27;1.25;;;1.15;;
21741;SDS011;11033;47.490;11.116;2024-02-26T07:26:53;3.55;;;1.05;;
21741;SDS011;11033;47.490;11.116;2024-02-26T07:29:20;2.38;;;1.30;;
21741;SDS011;11033;47.490;11.116;2024-02-26T07:31:46;2.15;;;1.45;;
21741;SDS011;11033;47.490;11.116;2024-02-26T07:34:12;4.63;;;1.35;;
21741;SDS011;11033;47.490;11.116;2024-02-26T07:36:37;4.68;;;0.93;;
21741;SDS011;11033;47.490;11.116;2024-02-26T07:39:02;1.95;;;0.90;;
21741;SDS011;11033;47.490;11.116;2024-02-26T07:41:27;1.40;;;1.10;;
21741;SDS011;11033;47.490;11.116;2024-02-26T07:43:53;1.63;;;0.90;;
21741;SDS011;11033;47.490;11.116;2024-02-26T07:46:18;2.67;;;1.30;;
21741;SDS011;11033;47.490;11.116;2024-02-26T07:48:43;1.33;;;1.17;;
21741;SDS011;11033;47.490;11.116;2024-02-26T07:51:11;0.93;;;0.90;;
21741;SDS011;11033;47.490;11.116;2024-02-26T07:53:37;1.33;;;1.20;;
21741;SDS011;11033;47.490;11.116;2024-02-26T07:56:02;2.15;;;1.27;;
21741;SDS011;11033;47.490;11.116;2024-02-26T07:58:28;3.75;;;1.65;;
21741;SDS011;11033;47.490;11.116;2024-02-26T08:00:53;1.15;;;1.05;;
21741;SDS011;11033;47.490;11.116;2024-02-26T08:03:19;3.30;;;1.45;;
21741;SDS011;11033;47.490;11.116;2024-02-26T08:05:44;4.47;;;1.45;;
21741;SDS011;11033;47.490;11.116;2024-02-26T08:08:09;2.67;;;1.33;;
21741;SDS011;11033;47.490;11.116;2024-02-26T08:10:34;3.15;;;2.45;;
21741;SDS011;11033;47.490;11.116;2024-02-26T08:13:00;1.90;;;1.80;;
21741;SDS011;11033;47.490;11.116;2024-02-26T08:15:32;3.35;;;2.30;;
21741;SDS011;11033;47.490;11.116;2024-02-26T08:17:59;2.00;;;1.90;;
21741;SDS011;11033;47.490;11.116;2024-02-26T08:20:27;1.45;;;1.30;;
21741;SDS011;11033;47.490;11.116;2024-02-26T08:22:52;1.40;;;1.10;;
21741;SDS011;11033;47.490;11.116;2024-02-26T08:25:18;1.58;;;1.00;;
21741;SDS011;11033;47.490;11.116;2024-02-26T08:27:43;0.88;;;0.88;;
21741;SDS011;11033;47.490;11.116;2024-02-26T08:30:08;3.42;;;1.80;;
21741;SDS011;11033;47.490;11.116;2024-02-26T08:32:35;5.10;;;1.88;;
21741;SDS011;11033;47.490;11.116;2024-02-26T08:35:00;3.10;;;1.85;;
21741;SDS011;11033;47.490;11.116;2024-02-26T08:37:25;3.60;;;1.58;;
21741;SDS011;11033;47.490;11.116;2024-02-26T08:39:51;2.30;;;1.70;;
21741;SDS011;11033;47.490;11.116;2024-02-26T08:42:16;7.55;;;2.53;;
21741;SDS011;11033;47.490;11.116;2024-02-26T08:44:41;5.65;;;2.15;;
21741;SDS011;11033;47.490;11.116;2024-02-26T08:47:06;1.17;;;1.17;;
21741;SDS011;11033;47.490;11.116;2024-02-26T08:49:32;4.43;;;1.45;;
21741;SDS011;11033;47.490;11.116;2024-02-26T08:51:57;4.38;;;1.50;;
21741;SDS011;11033;47.490;11.116;2024-02-26T08:54:22;5.72;;;2.20;;
21741;SDS011;11033;47.490;11.116;2024-02-26T08:56:49;5.93;;;2.67;;
21741;SDS011;11033;47.490;11.116;2024-02-26T08:59:14;7.57;;;4.70;;
21741;SDS011;11033;47.490;11.116;2024-02-26T09:01:41;9.10;;;5.00;;
21741;SDS011;11033;47.490;11.116;2024-02-26T09:04:06;8.35;;;7.57;;
21741;SDS011;11033;47.490;11.116;2024-02-26T09:06:32;7.85;;;3.75;;
21741;SDS011;11033;47.490;11.116;2024-02-26T09:08:57;3.17;;;2.47;;
21741;SDS011;11033;47.490;11.116;2024-02-26T09:11:22;4.00;;;2.10;;
21741;SDS011;11033;47.490;11.116;2024-02-26T09:13:47;3.17;;;2.88;;
21741;SDS011;11033;47.490;11.116;2024-02-26T09:16:13;3.40;;;2.60;;
21741;SDS011;11033;47.490;11.116;2024-02-26T09:18:38;6.78;;;4.38;;
21741;SDS011;11033;47.490;11.116;2024-02-26T09:21:04;6.47;;;3.40;;
21741;SDS011;11033;47.490;11.116;2024-02-26T09:23:33;1.75;;;1.40;;
21741;SDS011;11033;47.490;11.116;2024-02-26T09:26:00;5.32;;;1.90;;
21741;SDS011;11033;47.490;11.116;2024-02-26T09:28:25;2.78;;;1.50;;
21741;SDS011;11033;47.490;11.116;2024-02-26T09:30:50;6.82;;;1.33;;
21741;SDS011;11033;47.490;11.116;2024-02-26T09:33:16;1.88;;;1.15;;
21741;SDS011;11033;47.490;11.116;2024-02-26T09:35:41;0.98;;;0.93;;
21741;SDS011;11033;47.490;11.116;2024-02-26T09:38:06;1.52;;;1.40;;
21741;SDS011;11033;47.490;11.116;2024-02-26T09:40:32;6.55;;;2.00;;
21741;SDS011;11033;47.490;11.116;2024-02-26T09:42:59;6.13;;;1.70;;
21741;SDS011;11033;47.490;11.116;2024-02-26T09:45:26;3.78;;;1.30;;
21741;SDS011;11033;47.490;11.116;2024-02-26T09:47:53;4.50;;;1.30;;
21741;SDS011;11033;47.490;11.116;2024-02-26T09:50:20;4.47;;;1.30;;
21741;SDS011;11033;47.490;11.116;2024-02-26T09:52:47;1.73;;;1.15;;
21741;SDS011;11033;47.490;11.116;2024-02-26T09:55:14;7.43;;;2.20;;
21741;SDS011;11033;47.490;11.116;2024-02-26T09:57:41;3.65;;;2.40;;
21741;SDS011;11033;47.490;11.116;2024-02-26T10:00:10;3.38;;;1.92;;
21741;SDS011;11033;47.490;11.116;2024-02-26T10:05:06;0.75;;;0.75;;
21741;SDS011;11033;47.490;11.116;2024-02-26T10:07:35;0.82;;;0.82;;
21741;SDS011;11033;47.490;11.116;2024-02-26T10:10:01;1.30;;;0.70;;
21741;SDS011;11033;47.490;11.116;2024-02-26T10:12:26;0.80;;;0.80;;
21741;SDS011;11033;47.490;11.116;2024-02-26T10:14:54;0.73;;;0.73;;
21741;SDS011;11033;47.490;11.116;2024-02-26T10:17:19;1.05;;;0.70;;
21741;SDS011;11033;47.490;11.116;2024-02-26T10:19:45;0.82;;;0.82;;
21741;SDS011;11033;47.490;11.116;2024-02-26T10:22:10;2.35;;;0.90;;
21741;SDS011;11033;47.490;11.116;2024-02-26T10:24:36;0.60;;;0.60;;
21741;SDS011;11033;47.490;11.116;2024-02-26T10:27:01;0.70;;;0.70;;
21741;SDS011;11033;47.490;11.116;2024-02-26T10:29:27;0.80;;;0.70;;
21741;SDS011;11033;47.490;11.116;2024-02-26T10:31:53;0.75;;;0.68;;
21741;SDS011;11033;47.490;11.116;2024-02-26T10:34:18;0.70;;;0.70;;
21741;SDS011;11033;47.490;11.116;2024-02-26T10:36:44;0.50;;;0.50;;
21741;SDS011;11033;47.490;11.116;2024-02-26T10:39:13;0.57;;;0.50;;
21741;SDS011;11033;47.490;11.116;2024-02-26T10:41:39;0.63;;;0.63;;
21741;SDS011;11033;47.490;11.116;2024-02-26T10:44:07;1.33;;;0.60;;
21741;SDS011;11033;47.490;11.116;2024-02-26T10:46:34;0.50;;;0.50;;
21741;SDS011;11033;47.490;11.116;2024-02-26T10:49:00;0.50;;;0.43;;
21741;SDS011;11033;47.490;11.116;2024-02-26T10:51:26;0.63;;;0.50;;
21741;SDS011;11033;47.490;11.116;2024-02-26T10:53:57;0.50;;;0.50;;
21741;SDS011;11033;47.490;11.116;2024-02-26T10:56:25;0.50;;;0.50;;
21741;SDS011;11033;47.490;11.116;2024-02-26T10:58:54;0.55;;;0.55;;
21741;SDS011;11033;47.490;11.116;2024-02-26T11:01:20;0.70;;;0.63;;
21741;SDS011;11033;47.490;11.116;2024-02-26T11:03:51;0.60;;;0.60;;
21741;SDS011;11033;47.490;11.116;2024-02-26T11:06:17;0.53;;;0.53;;
21741;SDS011;11033;47.490;11.116;2024-02-26T11:08:47;2.50;;;0.50;;
21741;SDS011;11033;47.490;11.116;2024-02-26T11:11:14;0.70;;;0.47;;
21741;SDS011;11033;47.490;11.116;2024-02-26T11:13:42;1.58;;;0.50;;
21741;SDS011;11033;47.490;11.116;2024-02-26T11:16:10;1.27;;;0.40;;
21741;SDS011;11033;47.490;11.116;2024-02-26T11:18:36;0.50;;;0.50;;
21741;SDS011;11033;47.490;11.116;2024-02-26T11:21:04;1.02;;;0.68;;
21741;SDS011;11033;47.490;11.116;2024-02-26T11:23:33;0.70;;;0.60;;
21741;SDS011;11033;47.490;11.116;2024-02-26T11:26:01;0.57;;;0.57;;
21741;SDS011;11033;47.490;11.116;2024-02-26T11:28:29;0.60;;;0.60;;
21741;SDS011;11033;47.490;11.116;2024-02-26T11:30:56;0.90;;;0.40;;
21741;SDS011;11033;47.490;11.116;2024-02-26T11:33:24;0.50;;;0.50;;
21741;SDS011;11033;47.490;11.116;2024-02-26T11:35:50;1.15;;;1.05;;
21741;SDS011;11033;47.490;11.116;2024-02-26T11:38:23;1.45;;;0.80;;
21741;SDS011;11033;47.490;11.116;2024-02-26T11:40:49;0.80;;;0.80;;
21741;SDS011;11033;47.490;11.116;2024-02-26T11:43:15;1.77;;;0.77;;
21741;SDS011;11033;47.490;11.116;2024-02-26T11:48:14;1.60;;;0.60;;
21741;SDS011;11033;47.490;11.116;2024-02-26T11:50:52;0.60;;;0.60;;
21741;SDS011;11033;47.490;11.116;2024-02-26T11:53:19;1.00;;;0.50;;
21741;SDS011;11033;47.490;11.116;2024-02-26T11:55:48;0.40;;;0.40;;
21741;SDS011;11033;47.490;11.116;2024-02-26T11:58:14;0.93;;;0.40;;
21741;SDS011;11033;47.490;11.116;2024-02-26T12:00:40;0.40;;;0.40;;
21741;SDS011;11033;47.490;11.116;2024-02-26T12:03:05;0.85;;;0.55;;
21741;SDS011;11033;47.490;11.116;2024-02-26T12:05:33;0.68;;;0.68;;
21741;SDS011;11033;47.490;11.116;2024-02-26T12:08:02;3.70;;;0.60;;
21741;SDS011;11033;47.490;11.116;2024-02-26T12:10:32;2.33;;;0.60;;
21741;SDS011;11033;47.490;11.116;2024-02-26T12:15:39;0.70;;;0.70;;
21741;SDS011;11033;47.490;11.116;2024-02-26T12:18:08;1.30;;;0.68;;
21741;SDS011;11033;47.490;11.116;2024-02-26T12:20:37;1.50;;;0.80;;
21741;SDS011;11033;47.490;11.116;2024-02-26T12:23:03;0.88;;;0.60;;
21741;SDS011;11033;47.490;11.116;2024-02-26T12:25:29;2.42;;;0.60;;
21741;SDS011;11033;47.490;11.116;2024-02-26T12:27:56;0.50;;;0.50;;
21741;SDS011;11033;47.490;11.116;2024-02-26T12:30:22;3.35;;;0.70;;
21741;SDS011;11033;47.490;11.116;2024-02-26T12:32:48;1.42;;;0.60;;
21741;SDS011;11033;47.490;11.116;2024-02-26T12:35:15;0.55;;;0.40;;
21741;SDS011;11033;47.490;11.116;2024-02-26T12:37:41;0.73;;;0.73;;
21741;SDS011;11033;47.490;11.116;2024-02-26T12:40:08;2.17;;;1.48;;
21741;SDS011;11033;47.490;11.116;2024-02-26T12:42:34;2.03;;;1.75;;
21741;SDS011;11033;47.490;11.116;2024-02-26T12:45:08;1.95;;;1.13;;
21741;SDS011;11033;47.490;11.116;2024-02-26T12:47:37;2.63;;;1.08;;
21741;SDS011;11033;47.490;11.116;2024-02-26T12:50:04;2.53;;;1.10;;
21741;SDS011;11033;47.490;11.116;2024-02-26T12:52:33;0.77;;;0.70;;
21741;SDS011;11033;47.490;11.116;2024-02-26T12:55:00;4.85;;;0.70;;
21741;SDS011;11033;47.490;11.116;2024-02-26T12:57:27;2.05;;;0.63;;
21741;SDS011;11033;47.490;11.116;2024-02-26T12:59:55;3.30;;;1.05;;
21741;SDS011;11033;47.490;11.116;2024-02-26T13:02:20;1.55;;;1.23;;
21741;SDS011;11033;47.490;11.116;2024-02-26T13:04:46;1.60;;;1.02;;
21741;SDS011;11033;47.490;11.116;2024-02-26T13:07:11;0.80;;;0.75;;
21741;SDS011;11033;47.490;11.116;2024-02-26T13:09:37;0.80;;;0.80;;
21741;SDS011;11033;47.490;11.116;2024-02-26T13:12:06;1.30;;;0.93;;
21741;SDS011;11033;47.490;11.116;2024-02-26T13:14:32;3.95;;;0.80;;
21741;SDS011;11033;47.490;11.116;2024-02-26T13:16:59;1.10;;;1.00;;
21741;SDS011;11033;47.490;11.116;2024-02-26T13:19:25;1.42;;;1.30;;
21741;SDS011;11033;47.490;11.116;2024-02-26T13:21:51;2.70;;;1.42;;
21741;SDS011;11033;47.490;11.116;2024-02-26T13:24:16;1.98;;;1.55;;
21741;SDS011;11033;47.490;11.116;2024-02-26T13:26:44;4.47;;;2.90;;
21741;SDS011;11033;47.490;11.116;2024-02-26T13:29:16;4.50;;;2.70;;
21741;SDS011;11033;47.490;11.116;2024-02-26T13:31:42;6.20;;;2.53;;
21741;SDS011;11033;47.490;11.116;2024-02-26T13:34:07;4.68;;;2.20;;
21741;SDS011;11033;47.490;11.116;2024-02-26T13:36:32;4.78;;;3.70;;
21741;SDS011;11033;47.490;11.116;2024-02-26T13:38:58;4.03;;;3.00;;
21741;SDS011;11033;47.490;11.116;2024-02-26T13:41:23;5.80;;;2.70;;
21741;SDS011;11033;47.490;11.116;2024-02-26T13:43:48;1.83;;;1.40;;
21741;SDS011;11033;47.490;11.116;2024-02-26T13:46:14;2.80;;;1.50;;
21741;SDS011;11033;47.490;11.116;2024-02-26T13:48:40;1.25;;;1.15;;
21741;SDS011;11033;47.490;11.116;2024-02-26T13:51:06;2.28;;;1.40;;
21741;SDS011;11033;47.490;11.116;2024-02-26T13:53:32;2.47;;;1.30;;
21741;SDS011;11033;47.490;11.116;2024-02-26T13:55:57;1.48;;;1.00;;
21741;SDS011;11033;47.490;11.116;2024-02-26T13:58:23;2.30;;;1.20;;
21741;SDS011;11033;47.490;11.116;2024-02-26T14:00:49;2.03;;;1.40;;
21741;SDS011;11033;47.490;11.116;2024-02-26T14:03:15;4.88;;;2.45;;
21741;SDS011;11033;47.490;11.116;2024-02-26T14:05:41;8.18;;;2.53;;
21741;SDS011;11033;47.490;11.116;2024-02-26T14:08:06;2.58;;;2.00;;
21741;SDS011;11033;47.490;11.116;2024-02-26T14:10:31;2.00;;;1.80;;
21741;SDS011;11033;47.490;11.116;2024-02-26T14:12:57;3.75;;;1.77;;
21741;SDS011;11033;47.490;11.116;2024-02-26T14:15:24;2.53;;;1.42;;
21741;SDS011;11033;47.490;11.116;2024-02-26T14:17:50;3.13;;;1.40;;
21741;SDS011;11033;47.490;11.116;2024-02-26T14:20:19;1.17;;;1.03;;
21741;SDS011;11033;47.490;11.116;2024-02-26T14:22:46;2.45;;;1.65;;
21741;SDS011;11033;47.490;11.116;2024-02-26T14:25:11;2.67;;;1.20;;
21741;SDS011;11033;47.490;11.116;2024-02-26T14:27:36;1.20;;;1.10;;
21741;SDS011;11033;47.490;11.116;2024-02-26T14:30:02;1.65;;;1.20;;
21741;SDS011;11033;47.490;11.116;2024-02-26T14:32:27;7.07;;;4.53;;
21741;SDS011;11033;47.490;11.116;2024-02-26T14:34:53;5.85;;;2.95;;